MDT,Max TemperatureF,Mean TemperatureF,Min TemperatureF,Max Dew PointF,MeanDew PointF,Min DewpointF,Max Humidity, Mean Humidity, Min Humidity, Max Sea Level PressureIn, Mean Sea Level PressureIn, Min Sea Level PressureIn, Max VisibilityMiles, Mean VisibilityMiles, Min VisibilityMiles, Max Wind SpeedMPH, Mean Wind SpeedMPH, Max Gust SpeedMPH,PrecipitationIn, CloudCover, Events, WindDirDegrees
2011-10-1,81,60,38,45,33,29,70,43,16,30.08,29.94,29.85,10,10,10,31,7,47,T,2,Rain-Thunderstorm,176
2011-10-2,76,58,39,44,35,23,92,54,15,30.09,29.96,29.87,10,10,10,21,4,25,T,1,,160
2011-10-3,78,56,34,36,32,28,82,50,18,30.10,29.92,29.73,10,10,10,30,10,38,T,0,,163
2011-10-4,65,56,46,48,43,36,93,65,36,29.85,29.71,29.61,10,9,2,29,10,35,0.23,5,Rain,194
2011-10-5,57,51,45,45,43,40,93,76,59,29.62,29.49,29.42,10,10,10,23,9,31,0.08,6,Rain,145
2011-10-6,51,46,41,43,40,36,100,81,61,29.75,29.57,29.42,10,10,8,20,7,25,0.04,7,Rain,341
2011-10-7,49,45,40,38,35,31,86,70,54,30.07,29.86,29.68,10,10,10,23,9,30,0.01,8,Rain,319
2011-10-8,51,41,30,34,32,29,89,65,41,30.27,30.21,30.08,10,10,10,9,4,12,0.00,5,,321
2011-10-9,57,41,25,31,27,23,92,61,30,30.24,30.10,29.96,10,10,10,9,2,13,0.00,0,,112
2011-10-10,56,43,29,39,31,27,92,65,38,29.96,29.83,29.70,10,10,10,16,4,23,T,5,,221
2011-10-11,50,45,40,39,34,28,89,73,56,30.03,29.83,29.69,10,10,6,24,5,31,0.08,7,Rain,290
2011-10-12,53,45,36,30,27,23,76,54,32,30.18,30.11,30.07,10,10,10,17,6,29,0.00,2,,272
2011-10-13,51,41,30,34,27,21,92,62,32,30.15,30.10,30.04,10,10,10,20,5,25,T,6,Rain,317
2011-10-14,64,51,37,38,36,33,92,63,34,30.10,30.03,29.89,10,10,7,18,3,25,0.04,7,Rain,295
2011-10-15,53,45,37,44,39,34,100,83,66,30.11,29.99,29.84,10,10,10,18,6,24,0.02,6,Rain,294
2011-10-16,54,45,35,41,37,30,93,74,54,30.17,30.04,29.92,10,10,6,18,4,26,0.09,7,Rain,326
2011-10-17,51,38,25,31,25,18,100,65,29,30.47,30.36,30.19,10,10,10,13,4,15,0.00,2,,305
2011-10-18,58,39,20,29,23,17,92,59,25,30.56,30.42,30.26,10,10,10,8,2,10,0.00,0,,109
2011-10-19,56,39,22,30,25,19,88,58,27,30.23,30.09,29.98,10,10,10,10,3,13,0.00,0,,30
2011-10-20,59,43,26,35,29,23,92,60,28,30.14,30.08,30.03,10,10,2,16,3,24,0.00,2,,269
2011-10-21,54,44,33,36,34,32,96,71,46,30.21,30.16,30.09,10,10,10,15,5,22,T,6,,256
2011-10-22,57,45,33,37,33,29,82,60,38,30.24,30.15,30.06,10,10,10,21,9,30,T,4,Rain,247
2011-10-23,60,52,44,40,33,27,83,57,30,30.15,30.05,29.98,10,10,10,20,7,29,T,7,,290
2011-10-24,44,37,30,37,32,19,92,74,56,30.18,29.99,29.92,10,9,2,21,5,29,0.13,6,Rain,334
2011-10-25,38,28,18,27,21,13,92,64,35,30.47,30.32,30.16,10,8,0,20,4,26,T,4,Snow,3
2011-10-26,42,30,17,22,16,8,92,59,25,30.48,30.30,30.19,10,7,0,10,2,14,0.00,5,Fog,243
2011-10-27,43,32,20,19,15,9,84,57,29,30.31,30.17,30.08,10,10,10,21,6,24,0.00,3,,307
2011-10-28,52,33,13,18,10,1,88,51,13,30.40,30.22,29.93,10,10,10,15,3,22,0.00,1,,187
2011-10-29,47,37,27,28,21,7,69,44,19,30.24,30.05,29.87,10,10,10,26,12,37,0.00,4,,294
2011-10-30,60,40,20,29,24,18,88,58,28,30.35,30.18,29.99,10,10,10,15,4,23,0.00,2,,211
2011-10-31,50,38,26,36,25,13,65,47,28,30.16,29.98,29.88,10,10,10,29,10,36,0.00,5,,304